createdAt,value
2019-05-07T00:02:13.759Z,8.28
2019-05-07T00:04:17.556Z,9.15
2019-05-07T00:06:23.075Z,9.10
2019-05-07T00:08:26.625Z,7.62
2019-05-07T00:10:32.941Z,8.95
2019-05-07T00:12:35.779Z,8.85
2019-05-07T00:14:39.549Z,9.45
2019-05-07T00:16:43.280Z,9.20
2019-05-07T00:18:46.983Z,9.23
2019-05-07T00:20:52.799Z,8.90
2019-05-07T00:22:56.094Z,8.58
2019-05-07T00:24:59.789Z,9.23
2019-05-07T00:27:03.523Z,9.58
2019-05-07T00:29:07.282Z,9.50
2019-05-07T00:31:12.350Z,9.08
2019-05-07T00:33:16.150Z,9.65
2019-05-07T00:35:22.562Z,9.40
2019-05-07T00:37:28.057Z,9.13
2019-05-07T00:39:39.682Z,9.63
2019-05-07T00:41:47.719Z,9.60
2019-05-07T00:43:53.110Z,10.10
2019-05-07T00:46:04.209Z,8.70
2019-05-07T00:48:07.956Z,10.48
2019-05-07T00:50:13.305Z,9.95
2019-05-07T00:52:17.002Z,9.85
2019-05-07T00:54:22.892Z,10.20
2019-05-07T00:56:26.205Z,9.73
2019-05-07T00:58:31.997Z,10.68
2019-05-07T01:00:35.581Z,9.13
2019-05-07T01:02:39.286Z,10.25
2019-05-07T01:04:43.013Z,10.90
2019-05-07T01:06:46.739Z,9.53
2019-05-07T01:08:52.406Z,10.55
2019-05-07T01:10:55.859Z,10.18
2019-05-07T01:12:59.629Z,9.30
2019-05-07T01:15:04.247Z,10.68
2019-05-07T01:17:07.945Z,9.73
2019-05-07T01:19:12.538Z,10.35
2019-05-07T01:21:16.475Z,10.13
2019-05-07T01:23:20.174Z,9.43
2019-05-07T01:25:23.977Z,10.58
2019-05-07T01:27:27.694Z,9.83
2019-05-07T01:29:32.811Z,10.40
2019-05-07T01:31:38.372Z,10.08
2019-05-07T01:33:49.805Z,10.30
2019-05-07T01:35:58.109Z,10.25
2019-05-07T01:38:03.128Z,10.00
2019-05-07T01:40:07.258Z,10.88
2019-05-07T01:42:12.778Z,9.48
2019-05-07T01:44:16.389Z,10.05
2019-05-07T01:46:20.129Z,10.45
2019-05-07T01:48:23.897Z,10.20
2019-05-07T01:50:27.644Z,11.70
2019-05-07T01:52:33.137Z,10.13
2019-05-07T01:54:36.733Z,10.55
2019-05-07T01:56:42.609Z,9.85
2019-05-07T01:58:45.902Z,10.50
2019-05-07T02:00:49.613Z,10.72
2019-05-07T02:02:54.973Z,9.95
2019-05-07T02:05:03.421Z,10.88
2019-05-07T02:07:23.888Z,10.80
2019-05-07T02:09:38.266Z,10.50
2019-05-07T02:11:43.631Z,9.58
2019-05-07T02:13:47.430Z,10.28
2019-05-07T02:16:00.259Z,10.03
2019-05-07T02:17:56.598Z,9.53
2019-05-07T02:20:02.434Z,9.55
2019-05-07T02:22:05.723Z,10.38
2019-05-07T02:24:09.485Z,10.55
2019-05-07T02:26:13.510Z,11.08
2019-05-07T02:28:17.276Z,9.43
2019-05-07T02:30:23.744Z,9.65
2019-05-07T02:32:26.537Z,9.70
2019-05-07T02:34:30.264Z,8.98
2019-05-07T02:36:34.435Z,9.98
2019-05-07T02:38:45.641Z,10.38
2019-05-07T02:41:03.028Z,9.90
2019-05-07T02:43:06.958Z,10.43
2019-05-07T02:45:15.238Z,9.78
2019-05-07T02:47:23.519Z,10.50
2019-05-07T02:49:27.541Z,10.48
2019-05-07T02:51:43.540Z,10.23
2019-05-07T02:53:53.646Z,10.48
2019-05-07T02:55:58.905Z,10.03
2019-05-07T02:58:03.565Z,11.22
2019-05-07T03:00:07.816Z,10.82
2019-05-07T03:02:13.952Z,11.38
2019-05-07T03:04:16.921Z,11.40
2019-05-07T03:06:23.354Z,10.55
2019-05-07T03:08:27.592Z,10.70
2019-05-07T03:10:34.137Z,9.53
2019-05-07T03:12:36.838Z,10.08
2019-05-07T03:14:43.566Z,10.00
2019-05-07T03:16:49.386Z,9.38
2019-05-07T03:18:53.317Z,9.65
2019-05-07T03:20:58.572Z,9.35
2019-05-07T03:23:03.135Z,9.33
2019-05-07T03:25:08.831Z,9.78
2019-05-07T03:27:14.123Z,9.58
2019-05-07T03:29:19.750Z,9.38
2019-05-07T03:31:28.061Z,9.40
2019-05-07T03:33:36.983Z,9.03
2019-05-07T03:35:46.371Z,8.58
2019-05-07T03:37:47.954Z,8.80
2019-05-07T03:39:53.757Z,9.08
2019-05-07T03:41:57.039Z,9.10
2019-05-07T03:44:03.754Z,9.05
2019-05-07T03:46:14.052Z,9.40
2019-05-07T03:48:18.946Z,9.05
2019-05-07T03:50:23.317Z,8.93
2019-05-07T03:52:27.324Z,9.30
2019-05-07T03:54:33.780Z,10.43
2019-05-07T03:56:36.405Z,9.05
2019-05-07T03:58:42.874Z,8.68
2019-05-07T04:00:45.873Z,9.85
2019-05-07T04:02:52.481Z,8.93
2019-05-07T04:04:55.006Z,9.20
2019-05-07T04:06:58.726Z,9.80
2019-05-07T04:09:03.451Z,10.32
2019-05-07T04:11:07.252Z,9.08
2019-05-07T04:13:13.392Z,9.00
2019-05-07T04:15:19.425Z,9.28
2019-05-07T04:17:26.399Z,9.83
2019-05-07T04:19:27.504Z,9.00
2019-05-07T04:21:34.232Z,10.53
2019-05-07T04:23:36.688Z,10.63
2019-05-07T04:25:54.112Z,9.80
2019-05-07T04:28:03.818Z,9.73
2019-05-07T04:30:07.882Z,9.55
2019-05-07T04:32:14.352Z,9.85
2019-05-07T04:34:35.122Z,9.63
2019-05-07T04:36:43.264Z,9.78
2019-05-07T04:38:45.919Z,10.65
2019-05-07T04:40:49.636Z,9.95
2019-05-07T04:42:53.967Z,8.93
2019-05-07T04:44:57.863Z,9.23
2019-05-07T04:47:04.316Z,9.35
2019-05-07T04:49:06.991Z,8.90
2019-05-07T04:51:12.718Z,9.00
2019-05-07T04:53:16.504Z,8.90
2019-05-07T04:55:22.763Z,9.48
2019-05-07T04:57:25.714Z,9.25
2019-05-07T04:59:29.621Z,9.58
2019-05-07T05:01:34.962Z,8.93
2019-05-07T05:03:39.422Z,9.05
2019-05-07T05:05:43.709Z,8.98
2019-05-07T05:07:47.532Z,9.83
2019-05-07T05:09:53.136Z,8.98
2019-05-07T05:11:56.607Z,9.05
2019-05-07T05:14:02.738Z,9.33
2019-05-07T05:16:13.334Z,8.73
2019-05-07T05:18:17.044Z,9.70
2019-05-07T05:20:22.506Z,9.38
2019-05-07T05:22:31.750Z,10.05
2019-05-07T05:24:37.297Z,15.40
2019-05-07T05:26:41.934Z,10.53
2019-05-07T05:28:45.774Z,10.08
2019-05-07T05:30:56.927Z,9.38
2019-05-07T05:33:02.211Z,9.43
2019-05-07T05:35:12.511Z,8.50
2019-05-07T05:37:15.810Z,8.30
2019-05-07T05:39:19.512Z,8.73
2019-05-07T05:41:24.730Z,8.55
2019-05-07T05:43:32.545Z,7.95
2019-05-07T05:45:46.674Z,8.13
2019-05-07T05:48:01.973Z,10.55
2019-05-07T05:49:55.802Z,8.90
2019-05-07T05:52:03.912Z,8.90
2019-05-07T05:54:25.908Z,8.38
2019-05-07T05:56:42.565Z,8.63
2019-05-07T05:58:47.363Z,7.70
2019-05-07T06:00:55.749Z,8.68
2019-05-07T06:03:07.246Z,7.42
2019-05-07T06:05:28.885Z,7.40
2019-05-07T06:07:40.040Z,7.83
2019-05-07T06:10:02.558Z,6.40
2019-05-07T06:12:08.040Z,7.20
2019-05-07T06:14:13.398Z,7.40
2019-05-07T06:16:18.824Z,7.03
2019-05-07T06:18:41.871Z,7.42
2019-05-07T06:20:52.286Z,7.05
2019-05-07T06:23:15.850Z,5.95
2019-05-07T06:25:25.134Z,6.10
2019-05-07T06:27:29.145Z,6.62
2019-05-07T06:29:33.090Z,6.78
2019-05-07T06:31:36.971Z,6.30
2019-05-07T06:33:42.860Z,6.45
2019-05-07T06:35:46.164Z,6.17
2019-05-07T06:37:52.025Z,6.60
2019-05-07T06:40:08.996Z,6.35
2019-05-07T06:42:33.128Z,5.95
2019-05-07T06:44:36.435Z,6.67
2019-05-07T06:46:41.940Z,6.65
2019-05-07T06:48:46.348Z,6.42
2019-05-07T06:50:59.406Z,6.95
2019-05-07T06:53:03.134Z,6.92
2019-05-07T06:55:06.936Z,6.50
2019-05-07T06:57:12.913Z,7.35
2019-05-07T06:59:22.323Z,6.35
2019-05-07T07:01:43.852Z,8.25
2019-05-07T07:04:07.248Z,8.38
2019-05-07T07:06:22.982Z,6.00
2019-05-07T07:08:43.488Z,5.33
2019-05-07T07:11:02.650Z,5.55
2019-05-07T07:13:06.315Z,5.70
2019-05-07T07:15:12.200Z,5.65
2019-05-07T07:17:16.008Z,6.55
2019-05-07T07:19:19.714Z,6.12
2019-05-07T07:21:23.433Z,5.03
2019-05-07T07:23:27.193Z,5.10
2019-05-07T07:25:32.583Z,5.85
2019-05-07T07:27:36.404Z,5.20
2019-05-07T07:29:43.505Z,5.83
2019-05-07T07:31:52.760Z,5.45
2019-05-07T07:33:58.226Z,5.65
2019-05-07T07:36:02.611Z,6.58
2019-05-07T07:38:24.424Z,5.67
2019-05-07T07:40:32.816Z,6.50
2019-05-07T07:42:36.678Z,6.03
2019-05-07T07:44:42.431Z,6.78
2019-05-07T07:46:45.826Z,6.50
2019-05-07T07:49:04.251Z,6.12
2019-05-07T07:50:54.957Z,7.25
2019-05-07T07:52:58.661Z,6.80
2019-05-07T07:55:02.467Z,7.90
2019-05-07T07:57:21.700Z,7.25
2019-05-07T07:59:32.971Z,7.10
2019-05-07T08:01:38.342Z,7.33
2019-05-07T08:03:42.145Z,7.62
2019-05-07T08:05:45.848Z,8.10
2019-05-07T08:07:49.597Z,7.90
2019-05-07T08:09:53.325Z,7.90
2019-05-07T08:11:57.047Z,7.78
2019-05-07T08:14:02.306Z,7.37
2019-05-07T08:16:06.270Z,7.62
2019-05-07T08:18:11.849Z,7.47
2019-05-07T08:20:16.555Z,7.78
2019-05-07T08:22:22.343Z,8.38
2019-05-07T08:24:25.721Z,7.60
2019-05-07T08:26:29.446Z,8.40
2019-05-07T08:28:33.154Z,7.15
2019-05-07T08:30:36.981Z,7.70
2019-05-07T08:33:02.197Z,8.30
2019-05-07T08:35:09.181Z,8.35
2019-05-07T08:37:12.936Z,8.28
2019-05-07T08:39:16.653Z,8.23
2019-05-07T08:41:22.735Z,7.50
2019-05-07T08:43:26.517Z,7.35
2019-05-07T08:45:48.390Z,8.43
2019-05-07T08:47:53.753Z,8.60
2019-05-07T08:49:57.533Z,7.95
2019-05-07T08:52:03.447Z,8.08
2019-05-07T08:54:06.649Z,7.15
2019-05-07T08:56:12.307Z,8.28
2019-05-07T08:58:15.737Z,8.40
2019-05-07T09:00:22.314Z,8.53
2019-05-07T09:02:26.129Z,7.97
2019-05-07T09:04:29.875Z,7.78
2019-05-07T09:06:33.754Z,8.25
2019-05-07T09:08:37.464Z,7.80
2019-05-07T09:10:42.229Z,8.15
2019-05-07T09:12:46.013Z,8.75
2019-05-07T09:14:49.737Z,8.75
2019-05-07T09:16:53.482Z,9.28
2019-05-07T09:18:57.294Z,8.80
2019-05-07T09:21:02.162Z,8.85
2019-05-07T09:23:06.042Z,9.25
2019-05-07T09:25:09.952Z,10.00
2019-05-07T09:27:15.326Z,9.95
2019-05-07T09:29:37.087Z,8.78
2019-05-07T09:31:52.579Z,8.38
2019-05-07T09:33:58.001Z,9.73
2019-05-07T09:36:02.212Z,8.88
2019-05-07T09:38:06.174Z,8.55
2019-05-07T09:40:12.450Z,9.58
2019-05-07T09:42:15.862Z,8.60
2019-05-07T09:46:28.851Z,8.23
2019-05-07T09:48:33.813Z,8.95
2019-05-07T09:50:37.666Z,8.08
2019-05-07T09:52:42.687Z,7.78
2019-05-07T09:54:46.518Z,9.30
2019-05-07T09:56:50.220Z,9.38
2019-05-07T09:58:53.962Z,8.55
2019-05-07T10:00:57.754Z,8.60
2019-05-07T10:03:01.495Z,6.62
2019-05-07T10:05:07.017Z,7.47
2019-05-07T10:07:12.617Z,7.30
2019-05-07T10:09:17.303Z,6.17
2019-05-07T10:11:25.415Z,7.40
2019-05-07T10:13:32.865Z,7.45
2019-05-07T10:15:36.253Z,7.55
2019-05-07T10:17:41.628Z,7.22
2019-05-07T10:19:45.357Z,7.15
2019-05-07T10:21:49.104Z,7.80
2019-05-07T10:23:52.845Z,6.53
2019-05-07T10:25:56.865Z,7.80
2019-05-07T10:28:01.982Z,7.72
2019-05-07T10:30:06.257Z,7.17
2019-05-07T10:32:12.611Z,7.70
2019-05-07T10:34:15.429Z,7.42
2019-05-07T10:36:19.174Z,7.42
2019-05-07T10:38:22.891Z,7.45
2019-05-07T10:40:26.901Z,7.17
2019-05-07T10:42:32.280Z,8.25
2019-05-07T10:44:38.021Z,7.58
2019-05-07T10:46:46.286Z,8.18
2019-05-07T10:48:51.655Z,7.40
2019-05-07T10:50:57.037Z,7.40
2019-05-07T10:53:02.046Z,7.78
2019-05-07T10:55:06.087Z,7.30
2019-05-07T10:57:11.836Z,7.87
2019-05-07T10:59:15.247Z,7.45
2019-05-07T11:01:22.387Z,8.15
2019-05-07T11:03:26.055Z,7.10
2019-05-07T11:05:29.841Z,7.53
2019-05-07T11:07:33.566Z,6.90
2019-05-07T11:09:37.366Z,7.45
2019-05-07T11:11:42.357Z,8.40
2019-05-07T11:13:46.200Z,8.58
2019-05-07T11:15:51.812Z,8.70
2019-05-07T11:17:57.214Z,8.63
2019-05-07T11:20:01.037Z,8.48
2019-05-07T11:22:05.005Z,8.50
2019-05-07T11:24:08.731Z,8.48
2019-05-07T11:26:12.789Z,7.25
2019-05-07T11:28:16.785Z,7.00
2019-05-07T11:30:22.753Z,6.85
2019-05-07T11:32:26.730Z,8.00
2019-05-07T11:34:32.819Z,7.62
2019-05-07T11:36:36.641Z,7.55
2019-05-07T11:38:41.822Z,7.08
2019-05-07T11:40:46.110Z,7.65
2019-05-07T11:43:06.607Z,6.90
2019-05-07T11:45:12.894Z,7.20
2019-05-07T11:47:24.415Z,8.20
2019-05-07T11:49:49.542Z,8.55
2019-05-07T11:51:58.181Z,9.35
2019-05-07T11:54:08.946Z,8.85
2019-05-07T11:56:12.757Z,7.97
2019-05-07T11:58:16.468Z,8.33
2019-05-07T12:00:39.269Z,11.43
2019-05-07T12:02:47.232Z,9.88
2019-05-07T12:04:50.141Z,8.48
2019-05-07T12:06:53.918Z,8.38
2019-05-07T12:08:57.745Z,10.25
2019-05-07T12:11:02.426Z,9.43
2019-05-07T12:13:06.285Z,9.75
2019-05-07T12:15:10.069Z,21.70
2019-05-07T12:17:13.888Z,13.13
2019-05-07T12:19:17.817Z,8.70
2019-05-07T12:21:24.201Z,10.28
2019-05-07T12:23:26.904Z,8.48
2019-05-07T12:25:32.080Z,8.20
2019-05-07T12:27:36.046Z,8.50
2019-05-07T12:29:39.771Z,7.55
2019-05-07T12:31:45.128Z,7.83
2019-05-07T12:33:56.696Z,7.47
2019-05-07T12:36:01.985Z,7.87
2019-05-07T12:38:05.850Z,8.25
2019-05-07T12:40:12.306Z,6.92
2019-05-07T12:42:15.321Z,7.58
2019-05-07T12:44:19.042Z,7.37
2019-05-07T12:46:22.848Z,8.03
2019-05-07T12:48:26.601Z,8.75
2019-05-07T12:50:32.175Z,7.12
2019-05-07T12:52:42.138Z,7.15
2019-05-07T12:54:49.931Z,6.92
2019-05-07T12:56:53.671Z,6.47
2019-05-07T12:58:57.456Z,7.05
2019-05-07T13:01:08.533Z,7.08
2019-05-07T13:03:32.322Z,6.80
2019-05-07T13:05:36.391Z,7.47
2019-05-07T13:07:41.877Z,7.67
2019-05-07T13:09:45.690Z,7.35
2019-05-07T13:11:49.433Z,7.58
2019-05-07T13:13:53.211Z,8.73
2019-05-07T13:15:56.906Z,8.50
2019-05-07T13:18:02.567Z,9.05
2019-05-07T13:20:07.823Z,8.38
2019-05-07T13:22:12.987Z,8.73
2019-05-07T13:24:16.958Z,8.30
2019-05-07T13:26:24.346Z,9.73
2019-05-07T13:28:26.228Z,9.43
2019-05-07T13:30:29.988Z,9.23
2019-05-07T13:32:35.703Z,8.78
2019-05-07T13:34:39.581Z,8.40
2019-05-07T13:36:45.165Z,9.23
2019-05-07T13:38:57.056Z,9.13
2019-05-07T13:41:08.723Z,8.75
2019-05-07T13:43:17.161Z,9.55
2019-05-07T13:45:22.551Z,8.40
2019-05-07T13:47:28.210Z,9.88
2019-05-07T13:49:32.337Z,8.85
2019-05-07T13:51:36.438Z,9.33
2019-05-07T13:53:40.217Z,9.90
2019-05-07T13:55:43.957Z,8.93
2019-05-07T13:57:47.766Z,8.73
2019-05-07T13:59:53.030Z,8.45
2019-05-07T14:01:58.537Z,8.85
2019-05-07T14:04:04.151Z,8.20
2019-05-07T14:06:08.170Z,8.35
2019-05-07T14:08:12.034Z,8.70
2019-05-07T14:10:18.925Z,9.18
2019-05-07T14:12:23.135Z,7.22
2019-05-07T14:14:26.984Z,7.00
2019-05-07T14:16:30.735Z,6.85
2019-05-07T14:18:36.393Z,7.45
2019-05-07T14:20:42.381Z,6.40
2019-05-07T14:22:45.484Z,5.95
2019-05-07T14:24:49.302Z,7.03
2019-05-07T14:26:53.137Z,6.62
2019-05-07T14:28:56.914Z,6.40
2019-05-07T14:31:01.877Z,6.85
2019-05-07T14:33:12.400Z,6.40
2019-05-07T14:35:20.312Z,6.53
2019-05-07T14:37:27.318Z,8.35
2019-05-07T14:39:33.193Z,7.00
2019-05-07T14:41:37.002Z,7.25
2019-05-07T14:43:42.383Z,7.35
2019-05-07T14:45:46.164Z,8.33
2019-05-07T14:47:52.115Z,7.95
2019-05-07T14:49:55.337Z,8.10
2019-05-07T14:51:59.085Z,8.80
2019-05-07T14:54:02.940Z,8.58
2019-05-07T14:56:06.662Z,8.63
2019-05-07T14:58:12.244Z,9.85
2019-05-07T15:00:17.050Z,10.48
2019-05-07T15:02:20.956Z,23.98
2019-05-07T15:04:24.724Z,42.62
2019-05-07T15:06:28.539Z,12.80
2019-05-07T15:08:32.415Z,11.00
2019-05-07T15:10:36.089Z,12.75
2019-05-07T15:12:39.816Z,12.37
2019-05-07T15:14:43.557Z,9.00
2019-05-07T15:16:49.644Z,9.18
2019-05-07T15:18:54.547Z,10.95
2019-05-07T15:20:58.272Z,23.80
2019-05-07T15:23:07.813Z,8.33
2019-05-07T15:25:13.969Z,11.12
2019-05-07T15:27:17.781Z,18.35
2019-05-07T15:29:22.322Z,31.75
2019-05-07T15:31:32.069Z,9.53
2019-05-07T15:33:35.832Z,8.30
2019-05-07T15:35:39.548Z,8.73
2019-05-07T15:37:43.298Z,10.00
2019-05-07T15:39:47.110Z,14.33
2019-05-07T15:41:51.782Z,11.45
2019-05-07T15:43:55.764Z,11.50
2019-05-07T15:46:01.853Z,9.10
2019-05-07T15:48:04.968Z,7.67
2019-05-07T15:50:08.777Z,8.60
2019-05-07T15:52:14.218Z,9.28
2019-05-07T15:54:17.968Z,11.20
2019-05-07T15:56:21.950Z,9.08
2019-05-07T15:58:25.721Z,7.90
2019-05-07T16:00:33.302Z,8.45
2019-05-07T16:02:38.253Z,8.38
2019-05-07T16:04:41.997Z,9.50
2019-05-07T16:06:45.754Z,8.20
2019-05-07T16:08:51.116Z,8.13
2019-05-07T16:10:54.999Z,8.05
2019-05-07T16:12:58.793Z,8.58
2019-05-07T16:15:03.220Z,8.55
2019-05-07T16:17:09.757Z,8.13
2019-05-07T16:19:17.838Z,8.90
2019-05-07T16:21:22.584Z,9.53
2019-05-07T16:23:26.507Z,8.83
2019-05-07T16:25:30.241Z,9.63
2019-05-07T16:27:35.642Z,10.80
2019-05-07T16:29:39.349Z,9.93
2019-05-07T16:31:44.187Z,8.50
2019-05-07T16:33:48.177Z,8.83
2019-05-07T16:35:51.918Z,9.15
2019-05-07T16:37:55.696Z,8.53
2019-05-07T16:40:01.622Z,8.78
2019-05-07T16:42:04.753Z,9.00
2019-05-07T16:44:08.549Z,8.35
2019-05-07T16:46:12.256Z,9.83
2019-05-07T16:48:15.968Z,10.35
2019-05-07T16:50:22.210Z,9.73
2019-05-07T16:52:25.175Z,9.25
2019-05-07T16:54:28.900Z,10.15
2019-05-07T16:56:33.371Z,18.10
2019-05-07T16:58:39.006Z,11.22
2019-05-07T17:00:53.950Z,9.75
2019-05-07T17:02:59.086Z,12.47
2019-05-07T17:05:07.467Z,10.78
2019-05-07T17:07:13.378Z,10.88
2019-05-07T17:09:17.085Z,10.35
2019-05-07T17:11:22.503Z,9.63
2019-05-07T17:13:26.253Z,29.70
2019-05-07T17:15:30.029Z,13.70
2019-05-07T17:17:33.824Z,13.43
2019-05-07T17:19:37.606Z,14.55
2019-05-07T17:21:43.085Z,10.93
2019-05-07T17:23:46.809Z,11.33
2019-05-07T17:25:52.597Z,9.70
2019-05-07T17:27:56.101Z,10.35
2019-05-07T17:30:00.016Z,11.35
2019-05-07T17:32:03.873Z,10.90
2019-05-07T17:34:07.625Z,10.23
2019-05-07T17:36:12.052Z,10.88
2019-05-07T17:38:15.971Z,10.35
2019-05-07T17:40:19.814Z,11.18
2019-05-07T17:42:23.610Z,10.98
2019-05-07T17:44:27.318Z,10.80
2019-05-07T17:46:32.427Z,10.90
2019-05-07T17:48:36.419Z,10.43
2019-05-07T17:50:47.337Z,11.00
2019-05-07T17:52:53.330Z,12.18
2019-05-07T17:54:56.460Z,11.12
2019-05-07T17:57:01.982Z,11.78
2019-05-07T17:59:05.733Z,11.93
2019-05-07T18:01:09.727Z,10.82
2019-05-07T18:03:32.340Z,11.65
2019-05-07T18:05:35.881Z,11.90
2019-05-07T18:07:41.940Z,12.33
2019-05-07T18:09:45.078Z,12.73
2019-05-07T18:11:48.858Z,15.90
2019-05-07T18:13:53.292Z,15.35
2019-05-07T18:15:58.633Z,15.20
2019-05-07T18:18:04.129Z,15.03
2019-05-07T18:20:08.128Z,14.63
2019-05-07T18:22:12.799Z,13.55
2019-05-07T18:24:16.989Z,14.65
2019-05-07T18:26:29.658Z,13.98
2019-05-07T18:28:27.914Z,14.03
2019-05-07T18:30:32.665Z,13.60
2019-05-07T18:32:42.695Z,13.62
2019-05-07T18:34:46.208Z,14.83
2019-05-07T18:36:53.014Z,27.13
2019-05-07T18:38:56.562Z,33.40
2019-05-07T18:41:02.360Z,52.93
2019-05-07T18:43:05.732Z,59.70
2019-05-07T18:45:09.523Z,43.20
2019-05-07T18:47:13.261Z,39.50
2019-05-07T18:49:16.997Z,32.67
2019-05-07T18:51:20.776Z,28.98
2019-05-07T18:53:24.629Z,27.75
2019-05-07T18:55:28.372Z,30.57
2019-05-07T18:57:32.802Z,31.42
2019-05-07T18:59:37.281Z,32.08
2019-05-07T19:01:42.786Z,28.38
2019-05-07T19:03:46.677Z,25.77
2019-05-07T19:05:51.962Z,23.80
2019-05-07T19:08:07.136Z,22.07
2019-05-07T19:10:02.689Z,20.55
2019-05-07T19:12:08.381Z,18.95
2019-05-07T19:14:13.412Z,20.95
2019-05-07T19:16:17.391Z,21.27
2019-05-07T19:18:22.848Z,20.55
2019-05-07T19:20:26.579Z,21.23
2019-05-07T19:22:30.299Z,19.62
2019-05-07T19:24:44.190Z,19.95
2019-05-07T19:26:39.599Z,19.67
2019-05-07T19:28:43.321Z,17.95
2019-05-07T19:30:47.103Z,18.87
2019-05-07T19:32:52.163Z,18.45
2019-05-07T19:34:56.021Z,18.27
2019-05-07T19:36:59.769Z,17.57
2019-05-07T19:39:05.138Z,19.25
2019-05-07T19:41:09.030Z,20.50
2019-05-07T19:43:13.164Z,18.27
2019-05-07T19:45:18.995Z,20.15
2019-05-07T19:47:23.329Z,20.27
2019-05-07T19:49:27.228Z,21.68
2019-05-07T19:51:32.053Z,19.45
2019-05-07T19:53:36.245Z,20.55
2019-05-07T19:55:57.845Z,21.60
2019-05-07T19:58:05.911Z,22.45
2019-05-07T20:00:12.150Z,24.63
2019-05-07T20:02:17.561Z,29.98
2019-05-07T20:04:21.313Z,30.62
2019-05-07T20:06:25.038Z,34.73
2019-05-07T20:08:28.750Z,31.93
2019-05-07T20:10:34.152Z,29.92
2019-05-07T20:12:37.862Z,31.48
2019-05-07T20:14:42.202Z,32.53
2019-05-07T20:16:46.108Z,32.23
2019-05-07T20:18:52.150Z,33.45
2019-05-07T20:20:55.276Z,33.70
2019-05-07T20:22:59.070Z,33.65
2019-05-07T20:25:15.192Z,32.83
2019-05-07T20:27:08.308Z,32.38
2019-05-07T20:29:12.484Z,32.78
2019-05-07T20:31:16.264Z,32.63
2019-05-07T20:33:21.858Z,33.05
2019-05-07T20:35:25.630Z,33.35
2019-05-07T20:37:29.423Z,33.90
2019-05-07T20:39:35.042Z,34.10
2019-05-07T20:41:38.503Z,33.42
2019-05-07T20:43:42.871Z,32.90
2019-05-07T20:45:46.833Z,31.65
2019-05-07T20:47:52.356Z,32.28
2019-05-07T20:49:56.041Z,31.25
2019-05-07T20:51:59.758Z,29.85
2019-05-07T20:54:14.405Z,31.60
2019-05-07T20:56:19.769Z,32.08
2019-05-07T20:58:23.478Z,32.40
2019-05-07T21:00:28.626Z,35.43
2019-05-07T21:02:44.398Z,36.85
2019-05-07T21:04:37.919Z,37.58
2019-05-07T21:06:43.152Z,39.35
2019-05-07T21:08:47.190Z,39.92
2019-05-07T21:10:53.244Z,37.63
2019-05-07T21:12:56.239Z,36.93
2019-05-07T21:15:03.404Z,36.63
2019-05-07T21:17:07.048Z,36.23
2019-05-07T21:19:12.787Z,35.43
2019-05-07T21:21:16.176Z,36.53
2019-05-07T21:23:19.928Z,36.25
2019-05-07T21:25:23.634Z,35.55
2019-05-07T21:27:27.418Z,35.17
2019-05-07T21:29:32.685Z,35.03
2019-05-07T21:31:36.494Z,35.17
2019-05-07T21:33:42.578Z,35.08
2019-05-07T21:35:45.680Z,35.33
2019-05-07T21:37:49.367Z,33.35
2019-05-07T21:39:53.302Z,33.90
2019-05-07T21:41:57.053Z,33.67
2019-05-07T21:44:00.844Z,33.33
2019-05-07T21:46:04.616Z,32.88
2019-05-07T21:48:10.453Z,33.88
2019-05-07T21:50:16.042Z,33.23
2019-05-07T21:52:22.028Z,35.28
2019-05-07T21:54:26.862Z,33.78
2019-05-07T21:56:32.257Z,36.73
2019-05-07T21:58:37.625Z,36.03
2019-05-07T22:01:02.156Z,35.20
2019-05-07T22:03:13.597Z,39.27
2019-05-07T22:05:17.535Z,42.23
2019-05-07T22:07:22.742Z,40.80
2019-05-07T22:09:26.670Z,41.05
2019-05-07T22:11:32.345Z,39.70
2019-05-07T22:13:35.756Z,40.52
2019-05-07T22:15:39.485Z,41.18
2019-05-07T22:17:44.367Z,40.00
2019-05-07T22:19:48.210Z,41.50
2019-05-07T22:21:52.388Z,43.20
2019-05-07T22:23:56.238Z,43.08
2019-05-07T22:26:16.458Z,43.58
2019-05-07T22:28:05.585Z,44.60
2019-05-07T22:30:12.512Z,42.27
2019-05-07T22:32:22.364Z,41.13
2019-05-07T22:34:27.897Z,40.90
2019-05-07T22:36:32.714Z,40.43
2019-05-07T22:38:36.557Z,41.98
2019-05-07T22:40:40.260Z,39.55
2019-05-07T22:42:43.977Z,40.33
2019-05-07T22:44:47.736Z,41.10
2019-05-07T22:46:52.705Z,40.83
2019-05-07T22:48:56.625Z,39.27
2019-05-07T22:51:02.592Z,41.25
2019-05-07T22:53:05.941Z,39.95
2019-05-07T22:55:09.657Z,40.90
2019-05-07T22:57:22.833Z,40.55
2019-05-07T22:59:26.389Z,38.20
2019-05-07T23:01:31.972Z,39.40
2019-05-07T23:03:35.556Z,40.55
2019-05-07T23:05:39.252Z,39.70
2019-05-07T23:07:44.050Z,39.18
2019-05-07T23:09:48.031Z,40.25
2019-05-07T23:11:52.681Z,37.98
2019-05-07T23:13:57.187Z,35.68
2019-05-07T23:16:02.664Z,36.25
2019-05-07T23:18:06.586Z,35.00
2019-05-07T23:20:10.463Z,36.58
2019-05-07T23:22:14.200Z,36.17
2019-05-07T23:24:17.918Z,35.13
2019-05-07T23:26:23.323Z,35.23
2019-05-07T23:28:27.340Z,36.88
2019-05-07T23:30:32.985Z,35.95
2019-05-07T23:32:36.434Z,37.73
2019-05-07T23:34:40.135Z,35.78
2019-05-07T23:36:43.859Z,35.65
2019-05-07T23:38:47.617Z,36.15
2019-05-07T23:40:55.669Z,37.38
2019-05-07T23:43:03.712Z,37.85
2019-05-07T23:45:08.005Z,37.80
2019-05-07T23:47:12.239Z,35.90
2019-05-07T23:49:16.040Z,38.60
2019-05-07T23:51:19.769Z,36.03
2019-05-07T23:53:23.475Z,34.75
2019-05-07T23:55:27.204Z,35.43
2019-05-07T23:57:32.541Z,36.45
2019-05-07T23:59:36.519Z,36.70
